Time;durP1;ratioP1;P1;durP2;ratioP2;P2;SDS_P1;SDS_P2;PMS_P1;PMS_P2;Temp;Humidity;BMP_temperature;BMP_pressure;BME280_temperature;BME280_humidity;BME280_pressure;Samples;Min_cycle;Max_cycle;Signal;HPM_P1;HPM_P2
2023/04/27 00:00:44;;;;;;;10.33;3.77;;;;;;;;;;4965009;28;20212;-68
2023/04/27 00:03:09;;;;;;;8.60;4.40;;;;;;;;;;4960007;28;20235;-68
2023/04/27 00:05:35;;;;;;;7.67;3.93;;;;;;;;;;4959451;28;20276;-68
2023/04/27 00:08:00;;;;;;;5.73;3.60;;;;;;;;;;4961491;28;20659;-68
2023/04/27 00:10:26;;;;;;;8.40;4.20;;;;;;;;;;4962163;28;20213;-68
2023/04/27 00:12:51;;;;;;;8.03;4.23;;;;;;;;;;4964124;28;21453;-68
2023/04/27 00:15:16;;;;;;;5.67;4.63;;;;;;;;;;4961772;28;20193;-68
2023/04/27 00:17:42;;;;;;;6.37;4.33;;;;;;;;;;4959433;28;20611;-68
2023/04/27 00:20:10;;;;;;;9.30;3.83;;;;;;;;;;4960457;28;20690;-68
2023/04/27 00:22:36;;;;;;;5.73;3.70;;;;;;;;;;4960727;28;20267;-68
2023/04/27 00:25:01;;;;;;;10.10;4.10;;;;;;;;;;4966260;28;20176;-68
2023/04/27 00:27:27;;;;;;;7.63;4.10;;;;;;;;;;4967375;28;20297;-68
2023/04/27 00:29:52;;;;;;;7.73;4.30;;;;;;;;;;4964500;28;20196;-68
2023/04/27 00:32:17;;;;;;;5.90;4.17;;;;;;;;;;4967153;28;20211;-68
2023/04/27 00:34:42;;;;;;;7.63;3.87;;;;;;;;;;4969607;28;20200;-68
2023/04/27 00:37:08;;;;;;;8.10;4.63;;;;;;;;;;4959297;28;20184;-68
2023/04/27 00:39:34;;;;;;;6.73;4.23;;;;;;;;;;4961153;28;20658;-68
2023/04/27 00:42:00;;;;;;;6.60;4.33;;;;;;;;;;4967348;28;20201;-69
2023/04/27 00:44:26;;;;;;;6.33;4.03;;;;;;;;;;4960619;28;20243;-68
2023/04/27 00:46:55;;;;;;;7.53;4.70;;;;;;;;;;4967438;28;20658;-68
2023/04/27 00:49:21;;;;;;;7.53;4.53;;;;;;;;;;4961200;28;20211;-68
2023/04/27 00:51:46;;;;;;;6.37;4.27;;;;;;;;;;4960604;28;20185;-68
2023/04/27 00:54:12;;;;;;;9.07;4.27;;;;;;;;;;4963960;28;20426;-68
2023/04/27 00:56:37;;;;;;;9.83;4.53;;;;;;;;;;4963725;28;20185;-68
2023/04/27 00:59:02;;;;;;;8.40;4.27;;;;;;;;;;4965685;28;20552;-68
2023/04/27 01:01:29;;;;;;;9.20;4.80;;;;;;;;;;4964883;28;20705;-68
2023/04/27 01:03:54;;;;;;;7.10;4.77;;;;;;;;;;4961773;28;20255;-68
2023/04/27 01:06:19;;;;;;;8.77;4.47;;;;;;;;;;4972551;28;20323;-68
2023/04/27 01:08:45;;;;;;;9.07;4.20;;;;;;;;;;4971724;28;20181;-68
2023/04/27 01:11:10;;;;;;;7.17;4.53;;;;;;;;;;4973125;28;20235;-68
2023/04/27 01:13:36;;;;;;;7.33;4.17;;;;;;;;;;4971561;28;20238;-68
2023/04/27 01:16:01;;;;;;;8.73;4.40;;;;;;;;;;4972781;28;20708;-68
2023/04/27 01:18:26;;;;;;;11.50;4.17;;;;;;;;;;4973590;28;20181;-68
2023/04/27 01:20:52;;;;;;;8.90;4.93;;;;;;;;;;4971924;28;20226;-68
2023/04/27 01:23:17;;;;;;;9.40;4.83;;;;;;;;;;4961492;28;20177;-68
2023/04/27 01:25:42;;;;;;;8.37;4.63;;;;;;;;;;4973116;28;20169;-68
2023/04/27 01:28:07;;;;;;;6.10;3.80;;;;;;;;;;4970036;28;20179;-68
2023/04/27 01:30:32;;;;;;;9.47;4.40;;;;;;;;;;4967846;28;20201;-67
2023/04/27 01:32:58;;;;;;;7.30;4.23;;;;;;;;;;4970584;28;20202;-67
2023/04/27 01:35:23;;;;;;;7.37;4.60;;;;;;;;;;4973299;28;20212;-68
2023/04/27 01:37:48;;;;;;;7.87;4.83;;;;;;;;;;4970166;28;20186;-68
2023/04/27 01:40:13;;;;;;;6.37;4.27;;;;;;;;;;4969300;28;20612;-68
2023/04/27 01:42:39;;;;;;;9.23;4.93;;;;;;;;;;4968417;28;20207;-68
2023/04/27 01:45:04;;;;;;;7.80;4.87;;;;;;;;;;4970033;28;20279;-68
2023/04/27 01:47:29;;;;;;;8.17;4.70;;;;;;;;;;4968830;28;20181;-68
2023/04/27 01:49:55;;;;;;;9.63;4.97;;;;;;;;;;4967490;28;20645;-68
2023/04/27 01:52:20;;;;;;;9.20;5.30;;;;;;;;;;4969973;28;20734;-68
2023/04/27 01:54:45;;;;;;;8.97;4.87;;;;;;;;;;4972815;28;20189;-68
2023/04/27 01:57:10;;;;;;;8.10;4.90;;;;;;;;;;4968221;28;20180;-66
2023/04/27 01:59:35;;;;;;;8.30;4.77;;;;;;;;;;4966163;28;20200;-66
2023/04/27 02:02:00;;;;;;;10.90;4.70;;;;;;;;;;4964761;28;20199;-66
2023/04/27 02:04:26;;;;;;;5.90;4.87;;;;;;;;;;4973791;28;20176;-67
2023/04/27 02:06:51;;;;;;;8.50;5.20;;;;;;;;;;4970291;28;20184;-66
2023/04/27 02:09:16;;;;;;;8.00;4.67;;;;;;;;;;4972392;28;20187;-66
2023/04/27 02:11:41;;;;;;;11.23;5.90;;;;;;;;;;4966648;28;20718;-66
2023/04/27 02:14:07;;;;;;;8.57;4.73;;;;;;;;;;4964857;28;20195;-66
2023/04/27 02:16:32;;;;;;;7.67;4.63;;;;;;;;;;4971834;28;20263;-67
2023/04/27 02:18:58;;;;;;;9.77;5.20;;;;;;;;;;4964962;28;20198;-67
2023/04/27 02:21:23;;;;;;;8.33;5.20;;;;;;;;;;4971116;28;20236;-67
2023/04/27 02:23:48;;;;;;;11.83;5.23;;;;;;;;;;4958695;28;20220;-67
2023/04/27 02:26:18;;;;;;;10.10;4.77;;;;;;;;;;4966531;28;20236;-67
2023/04/27 02:28:43;;;;;;;9.90;5.37;;;;;;;;;;4968003;28;20218;-67
2023/04/27 02:31:08;;;;;;;11.07;5.17;;;;;;;;;;4967733;28;20390;-67
2023/04/27 02:33:33;;;;;;;10.23;6.13;;;;;;;;;;4971482;28;20231;-67
2023/04/27 02:35:59;;;;;;;14.20;6.40;;;;;;;;;;4959645;28;20200;-67
2023/04/27 02:38:24;;;;;;;9.07;5.47;;;;;;;;;;4969163;28;20275;-68
2023/04/27 02:40:53;;;;;;;11.67;5.07;;;;;;;;;;4967249;28;20209;-67
2023/04/27 02:43:18;;;;;;;10.83;5.73;;;;;;;;;;4965230;28;20232;-67
2023/04/27 02:45:44;;;;;;;9.23;4.90;;;;;;;;;;4964491;28;20738;-68
2023/04/27 02:48:09;;;;;;;12.27;5.77;;;;;;;;;;4963281;28;20196;-68
2023/04/27 02:50:39;;;;;;;9.47;5.00;;;;;;;;;;4970016;28;20278;-68
2023/04/27 02:53:04;;;;;;;9.83;5.30;;;;;;;;;;4962965;28;20558;-68
2023/04/27 02:55:29;;;;;;;10.17;4.97;;;;;;;;;;4965955;28;20172;-67
2023/04/27 02:57:54;;;;;;;9.40;5.63;;;;;;;;;;4964725;28;20280;-68
2023/04/27 03:00:20;;;;;;;8.13;4.67;;;;;;;;;;4962479;28;20212;-67
2023/04/27 03:02:45;;;;;;;8.60;4.80;;;;;;;;;;4968149;28;20302;-67
2023/04/27 03:05:11;;;;;;;11.00;5.47;;;;;;;;;;4967238;28;20200;-68
2023/04/27 03:07:36;;;;;;;9.60;4.83;;;;;;;;;;4966711;28;20263;-68
2023/04/27 03:10:02;;;;;;;10.80;5.07;;;;;;;;;;4963200;28;20291;-68
2023/04/27 03:12:27;;;;;;;8.57;5.00;;;;;;;;;;4962426;28;20180;-68
2023/04/27 03:14:53;;;;;;;7.73;4.83;;;;;;;;;;4965281;28;20547;-68
2023/04/27 03:17:18;;;;;;;7.67;4.63;;;;;;;;;;4963344;28;20188;-67
2023/04/27 03:27:43;;;;;;;10.30;5.57;;;;;;;;;;5013946;28;20287;-83
2023/04/27 03:30:09;;;;;;;10.13;5.80;;;;;;;;;;5015514;28;20207;-82
2023/04/27 03:32:34;;;;;;;9.63;5.07;;;;;;;;;;4995156;28;20165;-83
2023/04/27 03:35:00;;;;;;;12.13;5.60;;;;;;;;;;5008999;28;20211;-82
2023/04/27 03:37:25;;;;;;;11.20;5.00;;;;;;;;;;4995688;28;20206;-82
2023/04/27 03:39:51;;;;;;;8.37;5.20;;;;;;;;;;4985677;28;20203;-82
2023/04/27 03:42:16;;;;;;;7.40;4.60;;;;;;;;;;5015591;28;20188;-83
2023/04/27 03:44:41;;;;;;;9.07;5.57;;;;;;;;;;5012174;28;20236;-84
2023/04/27 03:47:08;;;;;;;8.00;4.73;;;;;;;;;;5009953;28;20179;-83
2023/04/27 03:49:34;;;;;;;9.93;5.13;;;;;;;;;;4996522;28;20199;-84
2023/04/27 03:51:59;;;;;;;7.17;4.93;;;;;;;;;;5015792;28;20251;-83
2023/04/27 03:54:24;;;;;;;7.73;4.63;;;;;;;;;;4999048;28;20175;-83
2023/04/27 03:56:49;;;;;;;8.57;5.23;;;;;;;;;;4992533;28;20176;-82
2023/04/27 03:59:15;;;;;;;8.73;5.13;;;;;;;;;;5011559;28;20164;-83
2023/04/27 04:01:40;;;;;;;9.93;4.70;;;;;;;;;;4994495;28;20239;-83
2023/04/27 04:04:05;;;;;;;7.37;4.60;;;;;;;;;;4978095;28;20181;-83
2023/04/27 04:06:31;;;;;;;7.43;4.33;;;;;;;;;;4987937;28;20664;-83
2023/04/27 04:08:56;;;;;;;8.67;4.87;;;;;;;;;;4977214;28;20841;-83
2023/04/27 04:11:21;;;;;;;9.90;5.13;;;;;;;;;;4969151;28;20204;-83
2023/04/27 04:13:46;;;;;;;8.37;5.00;;;;;;;;;;4995947;28;20187;-84
2023/04/27 04:16:12;;;;;;;9.83;5.80;;;;;;;;;;4975261;28;20184;-83
2023/04/27 04:18:38;;;;;;;6.53;4.27;;;;;;;;;;4977877;28;20184;-83
2023/04/27 04:21:03;;;;;;;10.80;5.47;;;;;;;;;;4993446;28;20226;-83
2023/04/27 04:23:31;;;;;;;6.80;4.83;;;;;;;;;;4974224;28;20192;-83
2023/04/27 04:25:56;;;;;;;13.97;5.43;;;;;;;;;;4969249;28;20196;-82
2023/04/27 04:28:22;;;;;;;8.60;5.57;;;;;;;;;;4997322;28;20214;-82
2023/04/27 04:30:48;;;;;;;9.17;5.07;;;;;;;;;;4995904;28;20207;-82
2023/04/27 04:33:13;;;;;;;9.77;5.57;;;;;;;;;;4977134;28;20273;-82
2023/04/27 04:35:40;;;;;;;8.43;4.77;;;;;;;;;;4976008;28;20176;-83
2023/04/27 04:38:05;;;;;;;7.70;4.70;;;;;;;;;;4999066;28;20187;-82
2023/04/27 04:40:30;;;;;;;9.93;4.97;;;;;;;;;;4983799;28;20203;-82
2023/04/27 04:42:55;;;;;;;10.37;5.37;;;;;;;;;;4976252;28;20230;-83
2023/04/27 04:45:21;;;;;;;8.80;5.00;;;;;;;;;;5000166;28;20290;-82
2023/04/27 04:47:47;;;;;;;11.90;6.40;;;;;;;;;;4982812;28;20243;-83
2023/04/27 04:50:13;;;;;;;10.30;4.57;;;;;;;;;;4997141;28;20906;-82
2023/04/27 04:52:38;;;;;;;11.30;5.03;;;;;;;;;;4982371;28;20184;-83
2023/04/27 04:55:03;;;;;;;9.53;5.23;;;;;;;;;;4989970;28;20171;-82
2023/04/27 04:57:29;;;;;;;9.17;4.93;;;;;;;;;;4974501;28;20255;-82
2023/04/27 04:59:55;;;;;;;7.07;5.00;;;;;;;;;;4978384;28;20219;-83
2023/04/27 05:02:20;;;;;;;11.00;5.80;;;;;;;;;;4978994;28;20211;-82
2023/04/27 05:04:46;;;;;;;9.57;5.67;;;;;;;;;;4989442;28;20200;-83
2023/04/27 05:07:11;;;;;;;12.57;6.47;;;;;;;;;;5002623;28;20186;-82
2023/04/27 05:09:36;;;;;;;10.30;5.33;;;;;;;;;;4999718;28;20651;-82
2023/04/27 05:12:02;;;;;;;11.73;5.67;;;;;;;;;;4984657;28;20175;-83
2023/04/27 05:14:27;;;;;;;10.50;5.73;;;;;;;;;;4977092;28;20188;-82
2023/04/27 05:16:52;;;;;;;10.53;6.80;;;;;;;;;;4996296;28;20589;-82
2023/04/27 05:19:19;;;;;;;9.97;5.90;;;;;;;;;;4976064;28;20194;-82
2023/04/27 05:21:44;;;;;;;11.00;5.73;;;;;;;;;;4977010;28;20254;-82
2023/04/27 05:24:10;;;;;;;13.63;6.87;;;;;;;;;;4974579;28;20199;-82
2023/04/27 05:26:35;;;;;;;13.27;6.20;;;;;;;;;;4973805;28;20314;-82
2023/04/27 05:29:00;;;;;;;13.87;7.70;;;;;;;;;;4977460;28;20670;-83
2023/04/27 05:31:25;;;;;;;8.57;5.80;;;;;;;;;;4975324;28;20210;-82
2023/04/27 05:33:51;;;;;;;7.93;5.77;;;;;;;;;;4992509;28;20188;-82
2023/04/27 05:36:16;;;;;;;12.60;6.30;;;;;;;;;;4974320;28;20184;-82
2023/04/27 05:38:42;;;;;;;10.47;5.47;;;;;;;;;;4974209;28;20188;-82
2023/04/27 05:41:07;;;;;;;10.03;6.37;;;;;;;;;;4976986;28;20602;-82
2023/04/27 05:43:33;;;;;;;6.50;5.40;;;;;;;;;;4972677;28;20179;-82
2023/04/27 05:45:59;;;;;;;9.37;5.40;;;;;;;;;;4971767;28;20804;-82
2023/04/27 05:48:25;;;;;;;10.63;5.47;;;;;;;;;;4992101;28;20180;-81
2023/04/27 05:50:58;;;;;;;10.67;5.80;;;;;;;;;;4977921;28;20286;-82
2023/04/27 05:53:23;;;;;;;8.17;5.13;;;;;;;;;;4980271;28;20537;-82
2023/04/27 05:55:48;;;;;;;10.37;5.23;;;;;;;;;;4980463;28;20188;-82
2023/04/27 05:58:14;;;;;;;9.37;5.20;;;;;;;;;;4997398;28;20579;-82
2023/04/27 06:00:39;;;;;;;7.33;4.47;;;;;;;;;;4987640;28;20220;-82
2023/04/27 06:03:04;;;;;;;8.17;5.57;;;;;;;;;;4971438;28;20196;-81
2023/04/27 06:05:30;;;;;;;8.37;4.17;;;;;;;;;;4986105;28;20187;-82
2023/04/27 06:07:55;;;;;;;5.97;4.60;;;;;;;;;;4995552;28;20183;-82
2023/04/27 06:10:20;;;;;;;9.37;5.17;;;;;;;;;;4980324;28;20204;-82
2023/04/27 06:12:45;;;;;;;6.87;4.33;;;;;;;;;;4975544;28;20665;-82
2023/04/27 06:15:11;;;;;;;8.20;4.13;;;;;;;;;;4978990;28;20665;-82
2023/04/27 06:17:37;;;;;;;6.63;4.37;;;;;;;;;;4994997;28;20179;-82
2023/04/27 06:20:06;;;;;;;9.57;4.07;;;;;;;;;;4978184;28;20621;-81
2023/04/27 06:22:31;;;;;;;5.87;3.57;;;;;;;;;;4988394;28;20207;-81
2023/04/27 06:24:57;;;;;;;9.10;3.80;;;;;;;;;;4989451;28;20168;-81
2023/04/27 06:27:22;;;;;;;5.90;4.17;;;;;;;;;;4989914;28;21919;-81
2023/04/27 06:29:47;;;;;;;8.57;3.50;;;;;;;;;;4990242;28;20218;-81
2023/04/27 06:32:12;;;;;;;9.67;4.10;;;;;;;;;;4975006;28;20235;-81
2023/04/27 06:34:37;;;;;;;7.13;3.63;;;;;;;;;;4972472;28;20226;-80
2023/04/27 06:37:03;;;;;;;8.30;4.17;;;;;;;;;;4988648;28;20207;-81
2023/04/27 06:39:28;;;;;;;6.63;3.70;;;;;;;;;;4972633;28;20267;-79
2023/04/27 06:41:53;;;;;;;11.30;3.73;;;;;;;;;;4972879;28;20200;-80
2023/04/27 06:44:19;;;;;;;4.77;3.20;;;;;;;;;;4987178;28;20180;-80
2023/04/27 06:46:44;;;;;;;4.97;3.13;;;;;;;;;;4991936;28;20179;-80
2023/04/27 06:49:09;;;;;;;5.97;3.33;;;;;;;;;;4970109;28;20672;-80
2023/04/27 06:51:34;;;;;;;4.90;3.40;;;;;;;;;;4975178;28;20216;-79
2023/04/27 06:53:59;;;;;;;5.23;3.73;;;;;;;;;;4970532;28;20808;-80
2023/04/27 06:56:25;;;;;;;4.77;2.80;;;;;;;;;;4989735;28;21432;-79
2023/04/27 06:58:50;;;;;;;5.27;2.87;;;;;;;;;;4974932;28;20650;-79
2023/04/27 07:01:15;;;;;;;5.30;3.57;;;;;;;;;;4968210;28;20231;-79
2023/04/27 07:03:40;;;;;;;4.80;3.70;;;;;;;;;;4969411;28;20555;-78
2023/04/27 07:06:06;;;;;;;6.90;3.33;;;;;;;;;;4971296;28;20219;-79
2023/04/27 07:08:31;;;;;;;4.93;4.43;;;;;;;;;;4980209;28;20267;-76
2023/04/27 07:10:56;;;;;;;4.30;3.23;;;;;;;;;;4994278;28;20580;-77
2023/04/27 07:13:21;;;;;;;7.90;3.33;;;;;;;;;;4963621;28;20570;-77
2023/04/27 07:15:46;;;;;;;5.60;3.13;;;;;;;;;;4982081;28;20184;-78
2023/04/27 07:18:12;;;;;;;7.83;3.00;;;;;;;;;;4988132;28;20466;-78
2023/04/27 07:20:37;;;;;;;6.63;3.73;;;;;;;;;;4977706;28;20207;-78
2023/04/27 07:23:02;;;;;;;4.70;3.03;;;;;;;;;;4990844;28;20666;-78
2023/04/27 07:25:28;;;;;;;4.23;2.70;;;;;;;;;;4971384;28;20274;-70
2023/04/27 07:27:53;;;;;;;5.97;2.40;;;;;;;;;;4987640;28;20180;-79
2023/04/27 07:30:19;;;;;;;4.67;2.77;;;;;;;;;;4986005;28;20627;-79
2023/04/27 07:32:45;;;;;;;5.07;3.20;;;;;;;;;;4991206;28;20168;-79
2023/04/27 07:35:10;;;;;;;3.20;2.60;;;;;;;;;;4982864;28;20556;-79
2023/04/27 07:37:37;;;;;;;6.03;3.20;;;;;;;;;;4981720;28;20187;-78
2023/04/27 07:40:09;;;;;;;6.33;2.83;;;;;;;;;;4995296;28;20199;-78
2023/04/27 07:42:36;;;;;;;3.30;2.80;;;;;;;;;;4977035;28;20587;-77
2023/04/27 07:45:02;;;;;;;5.23;2.73;;;;;;;;;;4996608;28;20187;-79
2023/04/27 07:47:27;;;;;;;5.78;2.50;;;;;;;;;;4996376;28;20199;-78
2023/04/27 07:49:52;;;;;;;7.40;2.97;;;;;;;;;;4988716;28;20203;-79
2023/04/27 07:52:17;;;;;;;3.23;2.20;;;;;;;;;;4993383;28;20198;-79
2023/04/27 07:54:42;;;;;;;5.03;2.53;;;;;;;;;;4997268;28;20190;-78
2023/04/27 07:57:11;;;;;;;6.03;2.47;;;;;;;;;;4971424;28;20183;-80
2023/04/27 07:59:36;;;;;;;4.57;2.28;;;;;;;;;;4970573;28;20930;-79
2023/04/27 08:02:02;;;;;;;5.43;2.33;;;;;;;;;;4970209;28;20282;-77
2023/04/27 08:04:27;;;;;;;10.02;3.33;;;;;;;;;;4961191;28;20184;-78
2023/04/27 08:06:52;;;;;;;3.83;2.30;;;;;;;;;;4970288;28;20271;-77
2023/04/27 08:09:17;;;;;;;5.38;2.70;;;;;;;;;;4972757;28;20221;-78
2023/04/27 08:11:43;;;;;;;4.07;2.35;;;;;;;;;;4964175;28;21133;-78
2023/04/27 08:14:12;;;;;;;6.15;3.22;;;;;;;;;;4979131;28;20188;-79
2023/04/27 08:16:37;;;;;;;3.42;1.95;;;;;;;;;;4979673;28;20187;-79
2023/04/27 08:19:02;;;;;;;4.40;2.40;;;;;;;;;;4984254;28;20563;-78
2023/04/27 08:21:29;;;;;;;3.75;2.28;;;;;;;;;;4965466;28;20709;-77
2023/04/27 08:23:54;;;;;;;3.63;1.85;;;;;;;;;;4980531;28;20172;-80
2023/04/27 08:26:19;;;;;;;6.07;2.35;;;;;;;;;;4987647;28;20983;-79
2023/04/27 08:28:46;;;;;;;5.07;2.15;;;;;;;;;;4965086;28;20187;-77
2023/04/27 08:31:11;;;;;;;1.73;1.63;;;;;;;;;;4962177;28;20204;-77
2023/04/27 08:33:37;;;;;;;4.57;2.05;;;;;;;;;;4978920;28;20528;-77
2023/04/27 08:36:02;;;;;;;3.92;2.40;;;;;;;;;;4963025;28;20187;-77
2023/04/27 08:38:27;;;;;;;2.58;2.05;;;;;;;;;;4966762;28;20198;-78
2023/04/27 08:40:52;;;;;;;4.15;1.80;;;;;;;;;;4992856;28;20208;-78
2023/04/27 08:43:17;;;;;;;2.05;1.85;;;;;;;;;;4989879;28;20239;-78
2023/04/27 08:45:46;;;;;;;2.40;2.20;;;;;;;;;;4985681;28;20206;-77
2023/04/27 08:48:12;;;;;;;4.47;2.17;;;;;;;;;;4966563;28;20186;-77
2023/04/27 08:50:38;;;;;;;4.18;2.22;;;;;;;;;;4978453;28;20196;-78
2023/04/27 08:53:04;;;;;;;3.55;2.00;;;;;;;;;;4973062;28;21393;-78
2023/04/27 08:55:29;;;;;;;3.97;2.10;;;;;;;;;;4982752;28;20183;-77
2023/04/27 08:57:55;;;;;;;4.78;1.70;;;;;;;;;;4983642;28;20285;-77
2023/04/27 09:00:20;;;;;;;8.90;2.13;;;;;;;;;;4964012;28;20211;-77
2023/04/27 09:02:46;;;;;;;4.32;2.45;;;;;;;;;;4982699;28;20203;-78
2023/04/27 09:05:18;;;;;;;4.40;1.90;;;;;;;;;;4982240;28;20199;-77
2023/04/27 09:08:00;;;;;;;5.78;2.40;;;;;;;;;;4964323;28;20175;-78
2023/04/27 09:10:28;;;;;;;4.53;2.03;;;;;;;;;;4961376;28;20329;-78
2023/04/27 09:12:57;;;;;;;2.70;2.20;;;;;;;;;;4967924;28;20184;-77
2023/04/27 09:15:22;;;;;;;2.80;2.00;;;;;;;;;;5005330;28;20270;-77
2023/04/27 09:17:52;;;;;;;4.18;1.90;;;;;;;;;;4981024;28;20229;-78
2023/04/27 09:20:17;;;;;;;4.40;2.35;;;;;;;;;;4981232;28;20290;-78
2023/04/27 09:22:46;;;;;;;4.75;1.90;;;;;;;;;;4977910;28;20934;-77
2023/04/27 09:25:25;;;;;;;6.03;2.15;;;;;;;;;;4976964;28;20773;-78
2023/04/27 09:27:50;;;;;;;2.65;2.03;;;;;;;;;;4992820;22;20242;-67
2023/04/27 09:30:16;;;;;;;5.05;1.88;;;;;;;;;;4977337;28;21112;-67
2023/04/27 09:32:57;;;;;;;2.05;1.73;;;;;;;;;;4979695;28;20692;-66
2023/04/27 09:35:30;;;;;;;4.30;1.98;;;;;;;;;;4978138;28;20680;-67
2023/04/27 09:37:56;;;;;;;7.00;2.92;;;;;;;;;;4979315;28;20861;-67
2023/04/27 09:40:25;;;;;;;4.05;2.50;;;;;;;;;;4980652;28;20321;-68
2023/04/27 09:42:50;;;;;;;2.58;1.77;;;;;;;;;;4980765;28;20254;-68
2023/04/27 09:45:16;;;;;;;4.50;1.77;;;;;;;;;;4984598;28;20222;-67
2023/04/27 09:47:41;;;;;;;4.82;2.58;;;;;;;;;;4964280;28;20194;-67
2023/04/27 09:50:07;;;;;;;4.00;2.08;;;;;;;;;;4985310;28;20218;-67
2023/04/27 09:52:32;;;;;;;3.10;1.90;;;;;;;;;;4991628;28;20179;-67
2023/04/27 09:54:57;;;;;;;3.15;2.00;;;;;;;;;;4989518;28;20187;-67
2023/04/27 09:57:33;;;;;;;2.40;1.90;;;;;;;;;;4974910;28;20211;-67
2023/04/27 10:00:09;;;;;;;3.17;1.95;;;;;;;;;;4986329;28;20182;-68
2023/04/27 10:02:41;;;;;;;4.60;2.47;;;;;;;;;;4990116;28;20681;-67
2023/04/27 10:05:23;;;;;;;2.95;2.13;;;;;;;;;;4990530;28;20233;-67
2023/04/27 10:07:48;;;;;;;5.93;2.05;;;;;;;;;;4990054;28;20214;-67
2023/04/27 10:10:17;;;;;;;2.53;1.83;;;;;;;;;;4993681;28;20650;-67
2023/04/27 10:12:42;;;;;;;4.38;2.05;;;;;;;;;;4991697;28;20650;-67
2023/04/27 10:15:15;;;;;;;2.72;2.20;;;;;;;;;;4991263;28;20179;-68
2023/04/27 10:17:46;;;;;;;5.22;2.08;;;;;;;;;;4991638;28;20195;-67
2023/04/27 10:20:11;;;;;;;2.42;1.80;;;;;;;;;;4991544;28;20638;-68
2023/04/27 10:22:40;;;;;;;3.33;2.10;;;;;;;;;;4991904;28;20219;-68
2023/04/27 10:25:21;;;;;;;3.80;2.20;;;;;;;;;;4992489;28;20196;-68
2023/04/27 10:27:51;;;;;;;3.75;2.28;;;;;;;;;;4972805;28;20230;-68
2023/04/27 10:30:17;;;;;;;4.20;2.60;;;;;;;;;;4989978;28;20179;-68
2023/04/27 10:32:50;;;;;;;2.72;2.10;;;;;;;;;;4991406;28;20191;-68
2023/04/27 10:35:15;;;;;;;3.72;2.60;;;;;;;;;;4992319;28;20179;-68
2023/04/27 10:37:41;;;;;;;6.45;2.75;;;;;;;;;;4975620;28;20214;-68
2023/04/27 10:40:13;;;;;;;3.60;2.47;;;;;;;;;;4989662;28;20819;-69
2023/04/27 10:42:45;;;;;;;4.97;2.22;;;;;;;;;;4991518;28;20661;-68
2023/04/27 10:45:11;;;;;;;4.13;2.17;;;;;;;;;;4989027;28;20733;-68
2023/04/27 10:47:38;;;;;;;3.03;2.53;;;;;;;;;;4991660;28;20197;-68
2023/04/27 10:50:04;;;;;;;4.72;2.65;;;;;;;;;;4989516;28;20199;-68
2023/04/27 10:52:30;;;;;;;2.50;2.30;;;;;;;;;;4991674;28;20191;-68
2023/04/27 10:54:55;;;;;;;5.50;2.58;;;;;;;;;;4973836;28;20171;-69
2023/04/27 10:57:21;;;;;;;5.82;3.13;;;;;;;;;;4974501;28;20204;-68
2023/04/27 10:59:51;;;;;;;6.78;2.72;;;;;;;;;;4991684;28;20171;-68
2023/04/27 11:02:16;;;;;;;9.88;3.33;;;;;;;;;;4988943;28;20208;-68
2023/04/27 11:04:41;;;;;;;3.08;2.65;;;;;;;;;;4991683;28;20235;-68
2023/04/27 11:07:11;;;;;;;4.18;2.47;;;;;;;;;;4986400;28;20246;-68
2023/04/27 11:09:37;;;;;;;3.53;2.55;;;;;;;;;;4992169;28;20176;-68
2023/04/27 11:12:05;;;;;;;6.10;3.45;;;;;;;;;;4973530;28;20306;-68
2023/04/27 11:14:30;;;;;;;4.60;2.92;;;;;;;;;;4987444;28;20254;-68
2023/04/27 11:16:56;;;;;;;6.60;3.15;;;;;;;;;;4989598;28;20211;-68
2023/04/27 11:19:21;;;;;;;4.93;2.70;;;;;;;;;;4991071;28;20186;-68
2023/04/27 11:21:46;;;;;;;5.05;2.85;;;;;;;;;;4989338;28;20593;-68
2023/04/27 11:24:11;;;;;;;3.10;2.78;;;;;;;;;;4991285;28;20176;-68
2023/04/27 11:26:37;;;;;;;5.38;3.17;;;;;;;;;;4990830;28;20214;-68
2023/04/27 11:29:14;;;;;;;4.38;2.83;;;;;;;;;;4991167;28;20180;-68
2023/04/27 11:31:42;;;;;;;4.97;2.63;;;;;;;;;;4989921;28;20167;-68
2023/04/27 11:34:08;;;;;;;3.85;2.47;;;;;;;;;;4989173;28;20187;-68
2023/04/27 11:36:33;;;;;;;3.83;2.58;;;;;;;;;;4991407;28;20195;-68
2023/04/27 11:38:58;;;;;;;6.63;2.70;;;;;;;;;;4970509;28;20214;-68
2023/04/27 11:41:34;;;;;;;5.05;2.80;;;;;;;;;;4989737;28;20179;-68
2023/04/27 11:44:07;;;;;;;2.72;2.42;;;;;;;;;;4969541;28;20175;-68
2023/04/27 11:46:35;;;;;;;5.10;2.97;;;;;;;;;;4984412;28;20475;-68
2023/04/27 11:49:02;;;;;;;5.85;2.88;;;;;;;;;;4990016;28;20182;-68
2023/04/27 11:51:28;;;;;;;4.18;2.95;;;;;;;;;;4991170;28;20700;-68
2023/04/27 11:53:53;;;;;;;4.47;3.28;;;;;;;;;;4990786;28;20195;-68
2023/04/27 11:56:18;;;;;;;4.07;3.57;;;;;;;;;;4987803;28;20229;-68
2023/04/27 11:58:43;;;;;;;7.77;4.40;;;;;;;;;;4990758;28;20472;-68
2023/04/27 12:01:09;;;;;;;3.75;3.15;;;;;;;;;;4986328;28;20463;-68
2023/04/27 12:03:35;;;;;;;5.28;3.05;;;;;;;;;;4991059;28;20207;-68
2023/04/27 12:06:00;;;;;;;4.47;3.35;;;;;;;;;;4989484;28;20172;-68
2023/04/27 12:08:25;;;;;;;4.25;3.30;;;;;;;;;;4982675;28;20672;-68
2023/04/27 12:10:51;;;;;;;6.93;3.58;;;;;;;;;;4990185;28;20178;-70
2023/04/27 12:13:16;;;;;;;5.25;3.17;;;;;;;;;;4989659;28;20183;-68
2023/04/27 12:15:41;;;;;;;4.90;3.33;;;;;;;;;;4970610;28;20176;-69
2023/04/27 12:18:07;;;;;;;7.47;3.88;;;;;;;;;;4983926;28;20223;-68
2023/04/27 12:20:32;;;;;;;4.88;2.67;;;;;;;;;;4974887;28;20183;-68
2023/04/27 12:22:58;;;;;;;6.95;3.55;;;;;;;;;;4978256;28;20207;-68
2023/04/27 12:25:23;;;;;;;3.45;3.03;;;;;;;;;;4990508;28;20184;-68
2023/04/27 12:27:49;;;;;;;4.43;3.22;;;;;;;;;;4991436;28;20567;-68
2023/04/27 12:30:14;;;;;;;3.80;3.40;;;;;;;;;;4985642;28;20183;-68
2023/04/27 12:32:40;;;;;;;4.65;2.97;;;;;;;;;;4991897;28;20192;-68
2023/04/27 12:35:05;;;;;;;6.20;3.95;;;;;;;;;;4991117;28;20668;-68
2023/04/27 12:37:31;;;;;;;4.35;3.08;;;;;;;;;;4988832;28;20191;-68
2023/04/27 12:39:56;;;;;;;5.00;3.10;;;;;;;;;;4987879;28;20230;-68
2023/04/27 12:42:23;;;;;;;5.47;3.20;;;;;;;;;;4989032;28;20184;-68
2023/04/27 12:44:48;;;;;;;4.13;3.30;;;;;;;;;;4973911;28;20669;-68
2023/04/27 12:47:13;;;;;;;5.25;3.15;;;;;;;;;;4973053;28;20238;-68
2023/04/27 12:49:39;;;;;;;6.07;3.70;;;;;;;;;;4972783;28;20184;-68
2023/04/27 12:52:04;;;;;;;7.28;3.92;;;;;;;;;;4990747;28;20448;-68
2023/04/27 12:54:30;;;;;;;5.43;3.30;;;;;;;;;;4987012;28;20566;-68
2023/04/27 12:56:55;;;;;;;5.10;3.15;;;;;;;;;;4972734;28;20235;-68
2023/04/27 12:59:20;;;;;;;5.57;3.00;;;;;;;;;;4994462;28;20186;-68
2023/04/27 13:01:45;;;;;;;5.82;3.55;;;;;;;;;;4993255;28;20183;-68
2023/04/27 13:04:16;;;;;;;3.78;3.10;;;;;;;;;;4976733;28;20176;-68
2023/04/27 13:06:42;;;;;;;4.68;3.10;;;;;;;;;;4991746;28;20708;-68
2023/04/27 13:09:07;;;;;;;4.43;3.90;;;;;;;;;;4976763;28;20175;-68
2023/04/27 13:11:32;;;;;;;4.23;2.97;;;;;;;;;;4994862;28;20187;-69
2023/04/27 13:13:58;;;;;;;5.30;3.15;;;;;;;;;;4994058;28;20436;-68
2023/04/27 13:16:24;;;;;;;4.25;3.13;;;;;;;;;;4994809;28;20208;-68
2023/04/27 13:18:51;;;;;;;6.07;3.50;;;;;;;;;;4994261;28;20172;-68
2023/04/27 13:21:16;;;;;;;4.97;3.33;;;;;;;;;;4993668;28;20520;-68
2023/04/27 13:23:41;;;;;;;5.05;2.97;;;;;;;;;;4992949;28;20207;-68
2023/04/27 13:26:06;;;;;;;5.53;3.53;;;;;;;;;;4991884;28;20191;-69
2023/04/27 13:28:32;;;;;;;4.03;3.15;;;;;;;;;;4992228;28;20638;-69
2023/04/27 13:30:57;;;;;;;4.15;3.17;;;;;;;;;;4992087;28;20228;-69
2023/04/27 13:33:22;;;;;;;8.02;3.03;;;;;;;;;;4993555;28;20208;-69
2023/04/27 13:35:47;;;;;;;5.00;3.10;;;;;;;;;;4992480;28;20646;-69
2023/04/27 13:38:13;;;;;;;5.80;3.92;;;;;;;;;;4986776;28;20196;-69
2023/04/27 13:40:38;;;;;;;5.43;2.90;;;;;;;;;;4993414;28;20171;-68
2023/04/27 13:43:03;;;;;;;4.28;3.28;;;;;;;;;;4993298;28;20421;-68
2023/04/27 13:45:28;;;;;;;7.47;3.40;;;;;;;;;;4992156;28;20669;-68
2023/04/27 13:47:53;;;;;;;4.33;3.33;;;;;;;;;;4990073;28;20499;-68
2023/04/27 13:50:19;;;;;;;4.15;3.20;;;;;;;;;;4975320;28;20421;-68
2023/04/27 13:52:44;;;;;;;4.95;3.20;;;;;;;;;;4992342;28;20569;-68
2023/04/27 13:55:10;;;;;;;6.30;3.15;;;;;;;;;;4977608;28;20258;-68
2023/04/27 13:57:35;;;;;;;9.00;3.40;;;;;;;;;;4991689;28;20274;-68
2023/04/27 14:00:01;;;;;;;4.00;3.00;;;;;;;;;;4993320;28;20172;-68
2023/04/27 14:02:29;;;;;;;5.70;3.17;;;;;;;;;;4993859;28;20203;-68
2023/04/27 14:04:54;;;;;;;5.18;3.40;;;;;;;;;;4988036;28;20218;-68
2023/04/27 14:07:20;;;;;;;3.20;2.67;;;;;;;;;;4991273;28;20223;-68
2023/04/27 14:09:45;;;;;;;6.55;3.95;;;;;;;;;;4989238;28;20177;-68
2023/04/27 14:12:10;;;;;;;4.00;3.20;;;;;;;;;;4994973;28;20590;-68
2023/04/27 14:14:36;;;;;;;4.47;3.38;;;;;;;;;;4992507;28;20242;-68
2023/04/27 14:17:01;;;;;;;5.13;3.58;;;;;;;;;;4976559;28;20195;-68
2023/04/27 14:19:27;;;;;;;6.25;3.38;;;;;;;;;;4991857;28;20176;-68
2023/04/27 14:21:52;;;;;;;4.50;3.23;;;;;;;;;;4991582;28;20678;-68
2023/04/27 14:24:17;;;;;;;4.13;3.05;;;;;;;;;;4975251;28;20436;-67
2023/04/27 14:26:44;;;;;;;8.05;3.20;;;;;;;;;;4991662;28;20314;-67
2023/04/27 14:29:10;;;;;;;4.78;3.15;;;;;;;;;;4988735;28;20176;-67
2023/04/27 14:31:35;;;;;;;3.95;2.90;;;;;;;;;;4985508;28;20226;-68
2023/04/27 14:34:00;;;;;;;5.35;3.33;;;;;;;;;;4992901;28;20180;-67
2023/04/27 14:36:26;;;;;;;3.35;2.97;;;;;;;;;;4979131;28;20251;-67
2023/04/27 14:38:51;;;;;;;6.60;3.30;;;;;;;;;;4993041;28;20168;-67
2023/04/27 14:41:16;;;;;;;3.42;2.95;;;;;;;;;;4992235;28;20617;-68